Marshallton, Delaware
Current Conditions -  °F | °C
As of 10:51 AM on Sunday 21 Dec 2014 (Local Time) from KILG Reporting Station
Clear Clear  
Wind Chill: 31°   Ceiling: Unl
Heat Index: 38°   Visibility: 10mi
Dew Point: 22°   Wind: 10mph
Humidity: 53%   Direction: 330°NNW
Pressure: 30.35"   Gusts: NA
Location:  39.7388°N, 75.6642°W
Report Text: KILG 211551Z 33009KT 10SM CLR 03/M06 A3035 RMK AO2 SLP279 T00331056
Loading
Personal Weather Stations






























Interactive Weather Map New forecast layout! Learn more

10-Day Weather Forecast

Advertisements
Track Severe Weather on mobile